Field, Kentucky
Current Conditions -  °F | °C
As of 4:55 PM on Thursday 25 Dec 2014 (Local Time) from K1A6 Reporting Station
Clear Clear  
Wind Chill: 45°   Ceiling: Unl
Heat Index: 45°   Visibility: 10mi
Dew Point: 32°   Wind: 3mph
Humidity: 61%   Direction: 180°S
Pressure: 30.2"   Gusts: NA
Location:  36.7417°N, 83.6911°W
Report Text: K1A6 252155Z AUTO 18003KT 10SM CLR 07/00 A3020 RMK AO2 T00740002
Loading
Personal Weather Stations






























Interactive Weather Map New forecast layout! Learn more

10-Day Weather Forecast

Advertisements
Track Severe Weather on mobile